Weather Search – Historical Data

Quick picks

Today Yesterday Last 7 days Last 30 days This month Last month Last year (same date) All of last year

Custom search

Database contains data from 2013-07-07 to 2026-09-04.

Friday September 4, 2026

94 measurements (5-min interval)

Max temperature
11,8 Β°C
00:00
Min temperature
10,3 Β°C
02:20
Avg temperature
11,0 Β°C
Total rainfall
6,1 mm
Max wind gust
3,1 m/s
SSW Β· 03:30
Avg wind
0,3 m/s
Avg humidity
95 %
Avg pressure
999 hPa
Max UV index
0,0
00:00
Max solar radiation
18 W/mΒ²
07:45
Avg radiation (daytime)
10 W/mΒ²

Charts

Temperature and dew point
Wind and gusts
Wind rose Β· prevailing: SSW
Rainfall
Humidity
Air pressure
UV and solar radiation

Detailed data

TimeTemp Β°CDew Β°C Humid %Wind m/sGust m/s Dir Β°Rain mmPress. hPa UVSolar W/mΒ²
00:00 11,810,7 930,0 0,0– 0,00999,0 0,00
00:05 11,710,6 930,0 0,0– 0,00999,0 0,00
00:10 11,810,7 930,0 0,0– 0,00999,0 0,00
00:15 11,810,7 930,0 1,3– 0,00999,2 0,00
00:20 11,810,7 930,0 0,9– 0,00999,2 0,00
00:25 11,710,6 930,0 0,0– 0,00999,2 0,00
00:30 11,710,6 930,0 0,0– 0,00999,2 0,00
00:35 11,610,7 940,0 0,0– 0,00999,2 0,00
00:40 11,610,6 940,0 0,0– 0,00999,2 0,00
00:45 11,510,6 940,0 0,4– 0,00999,4 0,00
00:50 11,610,6 940,0 0,0– 0,00999,4 0,00
00:55 11,610,7 940,0 0,0– 0,00999,4 0,00
01:00 11,510,6 940,0 0,0– 0,00999,4 0,00
01:05 11,510,6 940,0 0,0– 0,00999,4 0,00
01:10 11,510,6 940,0 0,0– 0,25999,4 0,00
01:15 11,410,5 940,0 0,4– 0,51999,3 0,00
01:20 11,210,3 940,4 0,9270 0,25999,3 0,00
01:25 10,910,0 940,4 1,3270 0,25999,3 0,00
01:30 10,69,6 940,4 1,3270 0,00999,1 0,00
01:35 10,49,5 940,0 0,0– 0,51999,1 0,00
01:40 10,49,5 940,0 0,4– 0,00999,1 0,00
01:45 10,49,5 940,0 0,0– 0,25999,0 0,00
01:50 10,49,6 950,0 0,0– 0,25999,0 0,00
01:55 10,69,8 950,0 0,0– 0,25999,0 0,00
02:00 10,59,6 940,0 0,4– 0,25999,1 0,00
02:05 10,49,7 950,0 0,4– 0,00999,1 0,00
02:10 10,49,6 950,0 0,0– 0,25999,1 0,00
02:15 10,39,6 950,0 0,9– 0,00999,1 0,00
02:20 10,39,5 950,4 0,9270 0,25999,1 0,00
02:25 10,39,6 950,0 0,9– 0,25999,1 0,00
02:30 10,39,6 950,0 0,9– 0,25999,0 0,00
02:35 10,49,6 950,0 0,0– 0,00999,0 0,00
02:40 10,49,8 960,0 0,0– 0,25999,0 0,00
02:45 10,69,9 960,0 0,0– 0,00998,9 0,00
02:50 10,69,9 960,0 0,9– 0,00998,9 0,00
02:55 10,49,8 960,4 1,8270 0,25998,9 0,00
03:00 10,49,8 960,0 1,8– 0,00998,8 0,00
03:05 10,59,9 960,0 0,0– 0,25998,8 0,00
03:10 10,49,7 950,4 1,80 0,00998,8 0,00
03:15 10,39,7 960,9 1,823 0,00998,8 0,00
03:20 10,39,7 960,9 1,823 0,25998,8 0,00
03:25 10,49,8 960,0 0,9– 0,00998,8 0,00
03:30 10,49,8 960,9 3,1203 0,25998,9 0,00
03:35 10,69,9 960,0 3,1– 0,00998,9 0,00
03:40 10,69,9 960,0 0,0– 0,25998,9 0,00
03:45 10,69,9 960,0 0,0– 0,00998,9 0,00
03:50 10,69,9 960,0 0,0– 0,25998,9 0,00
03:55 10,610,0 960,0 0,9– 0,00998,9 0,00
04:00 10,710,1 960,0 0,0– 0,00998,9 0,00
04:05 10,710,1 960,0 0,0– 0,25998,9 0,00
04:10 10,710,1 960,0 0,0– 0,00998,9 0,00
04:15 10,710,1 960,0 0,0– 0,00998,9 0,00
04:20 10,710,1 960,0 0,0– 0,00998,9 0,00
04:25 10,710,1 960,0 0,0– 0,00998,9 0,00
04:30 10,810,2 960,0 0,0– 0,00998,9 0,00
04:35 10,810,2 960,0 0,0– 0,00998,9 0,00
04:40 10,810,2 960,4 0,9203 0,00998,9 0,00
04:45 10,810,2 960,0 0,4– 0,00998,8 0,00
04:50 10,910,3 960,0 0,4– 0,00998,8 0,00
04:55 10,910,3 960,0 0,9– 0,00998,8 0,00
05:00 10,910,3 960,4 1,3203 0,00998,6 0,00
05:05 10,910,3 960,0 0,9– 0,00998,6 0,00
05:10 10,910,3 960,4 1,3203 0,00998,6 0,00
05:15 10,910,3 960,0 0,9– 0,00998,5 0,00
05:20 11,010,4 960,0 0,9– 0,00998,5 0,00
05:25 11,010,4 960,9 1,3203 0,00998,5 0,00
05:30 11,010,4 960,9 1,3203 0,00998,4 0,00
05:35 11,010,4 960,4 0,9203 0,00998,4 0,00
05:40 11,010,4 960,9 1,3203 0,00998,4 0,00
05:45 11,110,4 960,9 1,3203 0,00998,4 0,00
05:50 11,110,5 960,4 1,3203 0,00998,4 0,00
05:55 11,110,5 960,9 1,3203 0,00998,4 0,00
06:00 11,110,5 960,9 1,3203 0,00998,4 0,00
06:05 11,110,5 961,3 1,8203 0,00998,4 0,00
06:10 11,210,6 960,9 1,8203 0,00998,4 0,00
06:15 11,210,6 960,9 1,8180 0,00998,2 0,00
06:20 11,210,6 960,9 1,3180 0,00998,2 0,00
06:25 11,210,6 960,4 1,3180 0,00998,2 0,00
06:30 11,210,6 961,3 2,290 0,00998,0 0,00
06:35 11,210,6 960,9 1,390 0,00998,0 0,00
06:40 11,210,6 960,9 2,290 0,00998,0 0,00
06:45 11,210,6 960,0 0,4– 0,00998,0 0,00
06:50 11,210,6 960,4 1,390 0,00998,0 0,00
06:55 11,310,7 960,9 2,290 0,00998,0 0,00
07:00 11,310,7 960,0 0,9– 0,00998,0 0,00
07:05 11,310,7 960,0 0,4– 0,00998,0 0,00
07:10 11,310,7 960,0 0,4– 0,25998,0 0,00
07:15 11,310,7 960,0 0,9– 0,00998,1 0,04
07:20 11,310,7 960,0 0,4– 0,00998,1 0,05
07:25 11,310,7 960,0 0,4– 0,00998,1 0,09
07:30 11,310,7 960,4 1,390 0,00997,9 0,010
07:35 11,310,7 960,9 2,290 0,00997,9 0,012
07:40 11,310,7 961,3 2,290 0,00997,9 0,014
07:45 11,210,6 961,3 3,168 0,00997,8 0,018